Warning: Javascript must be enabled to use all the features on this page!


Page Loading - Please Wait...

Click to hideNews Bulletins

Peak Streamflow for the Nation

USGS 01395000 Rahway River at Rahway NJ

Union County, New Jersey
Hydrologic Unit Code 02030104
Latitude  40°37'08", Longitude  74°17'00" NAD83
Drainage area 40.9  square miles
Gage datum 8.77 feet above NGVD29
Output formats
Table
Graph
Tab-separated file
peakfq (watstore) format
Reselect output format
Water
Year
Date Gage
Height
(feet)
Stream-
flow
(cfs)
1922 1922-05-19 3.32 642
1923 1923-03-17 3.75 811
1924 1924-04-07 5.10 1,350
1925 1925-02-12 4.25 1,000
1926 1926-09-07 4.22 984
1927 1927-08-02 6.00 1,740
1928 1928-07-06 5.05 1,310
1929 1929-02-27 3.48 755
1930 1930-03-08 3.10 569
1931 1931-03-29 2.90 500
1932 1932-03-28 4.00 905
1933 1933-09-16 5.64 1,560
1934 1934-03-05 3.43 722
1935 1934-10-06 3.37 660
1936 1936-03-12 4.12 1,120
1937 1936-12-20 3.31 640
1938 1938-07-24 6.35 3,140
1939 1939-02-03 3.67 847
1940 1940-05-31 4.68 1,560
1941 1941-02-07 3.86 976
1942 1942-08-09 4.52 1,440
1943 1942-12-30 3.65 847
1944 1944-09-14 4.38 1,340
1945 1945-09-19 4.69 1,570
1946 1946-07-23 4.10 1,140
1947 1947-04-05 3.25 622
1948 1947-11-09 4.40 1,350
1949 1948-12-31 4.40 1,350
1950 1950-03-23 3.03 510
1951 1951-03-31 3.93 1,020
1952 1952-06-01 4.87 1,720C
1953 1953-03-13 4.68 1,590C
1954 1954-09-11 4.41 1,380C
1955 1955-08-13 5.63 2,440C
1956 1956-04-08 3.20 600C
1957 1957-04-06 3.50 770C
1958 1958-02-28 4.12 1,170C
1959 1959-08-09 4.66 1,580C
1960 1960-09-12 4.99 1,850C
1961 1961-03-23 3.68 878C
1962 1962-03-13 4.86 1,740C
1963 1963-03-06 3.50 770C
1964 1963-11-07 4.08 1,210C
1965 1965-02-08 3.97 1,130C
1966 1966-09-21 5.09 1,940C
1967 1967-03-07 4.70 1,670C
1968 1968-05-29 6.67 3,530C
1969 1969-09-04 4.90 1,830C
1970 1970-07-31 4.77 1,720C
1971 1971-08-28 7.08 4,010C
1972 1972-07-13 3.99 1,140C
1973 1973-08-02 7.88 5,420C
1974 1973-12-21 5.82 2,640C
1975 1975-07-15 7.62 5,070C
1976 1976-01-28 4.03 1,140C
1977 1977-03-23 5.48 2,430C
1978 1977-11-08 6.46 3,570C
1979 1979-01-24 5.67 2,680C
1980 1980-04-28 4.82 1,860C
1981 1981-05-12 3.28 708C
1982 1982-01-04 4.83 1,820C
1983 1983-04-10 5.16 2,090C
1984 1983-12-14 6.43 2,880C
1985 1985-09-27 4.91 1,700C
1986 1986-04-17 4.92 1,710C
1987 1987-04-04 4.29 1,280C
1988 1988-07-22 4.05 1,130C
1989 1989-09-20 5.63 2,150C
1990 1989-10-20 4.19 1,260C
1991 1991-03-04 4.57 1,480C
1992 1992-06-05 6.25 2,890C
1993 1993-04-01 4.13 1,140C
1994 1994-03-10 4.75 1,580C
1995 1995-07-18 4.45 1,360C
1996 1996-01-19 5.03 1,790C
1997 1996-10-19 7.50 4,210C
1998 1998-01-23 4.56 1,440C
1999 1999-09-17 9.60 5,590C
2000 2000-08-27 4.12 1,130C
2001 2001-03-30 4.64 1,460C
2002 2002-05-18 3.48 706C
2003 2003-06-05 5.43 1,920C
2004 2004-07-28 4.78 1,440C
2005 2005-03-29 4.86 1,500C
2006 2005-10-09 5.15 1,710C
2007 2007-04-16 8.915 4,9102,C
2008 2008-09-07 4.91 1,530C
2009 2008-12-12 4.93 1,550C
2010 2010-03-14 8.12 3,690C
2011 2011-08-28 12.10 7,250C
2012 2011-12-08 4.76 1,390C
2013 2013-06-08 4.692 1,350C
2014 2014-04-30 7.16 2,960C
2015 2015-01-18 4.44 1,210C
2016 2016-02-25 4.31 1,130C
2017 2017-03-31 4.27 1,110
2018 2018-04-16 5.51 1,840
2019 2019-07-23 4.61 1,310
2020 2020-07-11 3.95 917
?
  Peak Gage-Height Qualification Codes.
?
  Peak Streamflow Qualification Codes.